sensor_id;sensor_type;location;lat;lon;timestamp;P1;durP1;ratioP1;P2;durP2;ratioP2
4563;SDS011;2294;51.818;8.484;2022-07-23T00:01:37;10.80;;;8.43;;
4563;SDS011;2294;51.818;8.484;2022-07-23T00:04:06;12.03;;;9.63;;
4563;SDS011;2294;51.818;8.484;2022-07-23T00:06:33;15.97;;;10.00;;
4563;SDS011;2294;51.818;8.484;2022-07-23T00:09:00;15.40;;;9.20;;
4563;SDS011;2294;51.818;8.484;2022-07-23T00:11:27;16.23;;;10.03;;
4563;SDS011;2294;51.818;8.484;2022-07-23T00:13:53;12.87;;;8.77;;
4563;SDS011;2294;51.818;8.484;2022-07-23T00:16:22;11.87;;;8.77;;
4563;SDS011;2294;51.818;8.484;2022-07-23T00:18:51;13.17;;;9.90;;
4563;SDS011;2294;51.818;8.484;2022-07-23T00:21:17;15.87;;;8.70;;
4563;SDS011;2294;51.818;8.484;2022-07-23T00:23:44;12.70;;;9.10;;
4563;SDS011;2294;51.818;8.484;2022-07-23T00:26:11;19.37;;;9.30;;
4563;SDS011;2294;51.818;8.484;2022-07-23T00:28:38;13.43;;;10.50;;
4563;SDS011;2294;51.818;8.484;2022-07-23T00:31:05;15.13;;;9.57;;
4563;SDS011;2294;51.818;8.484;2022-07-23T00:33:32;17.93;;;9.90;;
4563;SDS011;2294;51.818;8.484;2022-07-23T00:36:00;22.50;;;10.20;;
4563;SDS011;2294;51.818;8.484;2022-07-23T00:38:27;12.90;;;9.17;;
4563;SDS011;2294;51.818;8.484;2022-07-23T00:40:54;16.07;;;9.60;;
4563;SDS011;2294;51.818;8.484;2022-07-23T00:43:21;14.20;;;10.20;;
4563;SDS011;2294;51.818;8.484;2022-07-23T00:45:49;13.37;;;9.10;;
4563;SDS011;2294;51.818;8.484;2022-07-23T00:48:16;13.87;;;9.47;;
4563;SDS011;2294;51.818;8.484;2022-07-23T00:50:43;12.23;;;9.93;;
4563;SDS011;2294;51.818;8.484;2022-07-23T00:53:12;18.57;;;10.00;;
4563;SDS011;2294;51.818;8.484;2022-07-23T00:55:39;15.40;;;9.70;;
4563;SDS011;2294;51.818;8.484;2022-07-23T00:58:06;16.97;;;11.50;;
4563;SDS011;2294;51.818;8.484;2022-07-23T01:00:34;16.17;;;9.67;;
4563;SDS011;2294;51.818;8.484;2022-07-23T01:03:01;15.17;;;10.27;;
4563;SDS011;2294;51.818;8.484;2022-07-23T01:05:27;14.17;;;9.23;;
4563;SDS011;2294;51.818;8.484;2022-07-23T01:07:54;16.00;;;10.60;;
4563;SDS011;2294;51.818;8.484;2022-07-23T01:10:23;20.17;;;10.47;;
4563;SDS011;2294;51.818;8.484;2022-07-23T01:13:00;17.43;;;10.60;;
4563;SDS011;2294;51.818;8.484;2022-07-23T01:15:29;13.90;;;9.77;;
4563;SDS011;2294;51.818;8.484;2022-07-23T01:17:56;16.23;;;10.93;;
4563;SDS011;2294;51.818;8.484;2022-07-23T01:20:23;11.37;;;9.00;;
4563;SDS011;2294;51.818;8.484;2022-07-23T01:22:52;13.83;;;9.77;;
4563;SDS011;2294;51.818;8.484;2022-07-23T01:25:19;16.50;;;10.23;;
4563;SDS011;2294;51.818;8.484;2022-07-23T01:27:46;12.80;;;9.07;;
4563;SDS011;2294;51.818;8.484;2022-07-23T01:30:14;12.60;;;8.97;;
4563;SDS011;2294;51.818;8.484;2022-07-23T01:32:41;11.40;;;9.00;;
4563;SDS011;2294;51.818;8.484;2022-07-23T01:35:08;20.17;;;9.83;;
4563;SDS011;2294;51.818;8.484;2022-07-23T01:37:36;15.27;;;9.77;;
4563;SDS011;2294;51.818;8.484;2022-07-23T01:40:05;13.80;;;9.37;;
4563;SDS011;2294;51.818;8.484;2022-07-23T01:42:33;15.23;;;10.10;;
4563;SDS011;2294;51.818;8.484;2022-07-23T01:45:01;12.77;;;9.20;;
4563;SDS011;2294;51.818;8.484;2022-07-23T01:47:29;13.60;;;9.70;;
4563;SDS011;2294;51.818;8.484;2022-07-23T01:49:56;12.17;;;9.10;;
4563;SDS011;2294;51.818;8.484;2022-07-23T01:52:23;16.00;;;10.27;;
4563;SDS011;2294;51.818;8.484;2022-07-23T01:54:50;19.03;;;10.30;;
4563;SDS011;2294;51.818;8.484;2022-07-23T01:57:18;13.43;;;10.23;;
4563;SDS011;2294;51.818;8.484;2022-07-23T01:59:45;14.70;;;10.17;;
4563;SDS011;2294;51.818;8.484;2022-07-23T02:02:12;15.20;;;10.20;;
4563;SDS011;2294;51.818;8.484;2022-07-23T02:04:39;17.10;;;10.83;;
4563;SDS011;2294;51.818;8.484;2022-07-23T02:07:06;14.37;;;9.70;;
4563;SDS011;2294;51.818;8.484;2022-07-23T02:09:33;12.57;;;9.40;;
4563;SDS011;2294;51.818;8.484;2022-07-23T02:12:00;14.90;;;11.47;;
4563;SDS011;2294;51.818;8.484;2022-07-23T02:14:29;14.33;;;10.27;;
4563;SDS011;2294;51.818;8.484;2022-07-23T02:16:56;15.60;;;10.30;;
4563;SDS011;2294;51.818;8.484;2022-07-23T02:19:22;14.90;;;9.93;;
4563;SDS011;2294;51.818;8.484;2022-07-23T02:21:49;19.50;;;10.43;;
4563;SDS011;2294;51.818;8.484;2022-07-23T02:24:16;16.30;;;11.20;;
4563;SDS011;2294;51.818;8.484;2022-07-23T02:26:43;15.10;;;10.40;;
4563;SDS011;2294;51.818;8.484;2022-07-23T02:29:10;15.07;;;11.80;;
4563;SDS011;2294;51.818;8.484;2022-07-23T02:31:39;17.77;;;11.60;;
4563;SDS011;2294;51.818;8.484;2022-07-23T02:34:06;12.17;;;10.13;;
4563;SDS011;2294;51.818;8.484;2022-07-23T02:36:36;17.33;;;10.40;;
4563;SDS011;2294;51.818;8.484;2022-07-23T02:39:03;15.30;;;11.83;;
4563;SDS011;2294;51.818;8.484;2022-07-23T02:41:30;13.97;;;10.20;;
4563;SDS011;2294;51.818;8.484;2022-07-23T02:43:57;17.67;;;10.87;;
4563;SDS011;2294;51.818;8.484;2022-07-23T02:46:24;14.83;;;10.13;;
4563;SDS011;2294;51.818;8.484;2022-07-23T02:48:55;16.87;;;11.00;;
4563;SDS011;2294;51.818;8.484;2022-07-23T02:51:22;20.13;;;10.87;;
4563;SDS011;2294;51.818;8.484;2022-07-23T02:53:49;14.93;;;10.80;;
4563;SDS011;2294;51.818;8.484;2022-07-23T02:56:16;15.50;;;10.50;;
4563;SDS011;2294;51.818;8.484;2022-07-23T02:58:43;16.40;;;11.33;;
4563;SDS011;2294;51.818;8.484;2022-07-23T03:01:10;14.13;;;9.73;;
4563;SDS011;2294;51.818;8.484;2022-07-23T03:03:37;16.33;;;10.80;;
4563;SDS011;2294;51.818;8.484;2022-07-23T03:06:05;19.87;;;11.40;;
4563;SDS011;2294;51.818;8.484;2022-07-23T03:08:32;14.97;;;11.67;;
4563;SDS011;2294;51.818;8.484;2022-07-23T03:10:59;22.23;;;12.97;;
4563;SDS011;2294;51.818;8.484;2022-07-23T03:13:26;20.63;;;11.87;;
4563;SDS011;2294;51.818;8.484;2022-07-23T03:15:54;18.30;;;11.93;;
4563;SDS011;2294;51.818;8.484;2022-07-23T03:18:21;18.10;;;12.53;;
4563;SDS011;2294;51.818;8.484;2022-07-23T03:20:48;17.17;;;11.60;;
4563;SDS011;2294;51.818;8.484;2022-07-23T03:23:17;18.77;;;13.27;;
4563;SDS011;2294;51.818;8.484;2022-07-23T03:25:44;18.13;;;12.53;;
4563;SDS011;2294;51.818;8.484;2022-07-23T03:28:12;14.30;;;11.03;;
4563;SDS011;2294;51.818;8.484;2022-07-23T03:30:38;13.57;;;10.53;;
4563;SDS011;2294;51.818;8.484;2022-07-23T03:33:05;16.80;;;11.37;;
4563;SDS011;2294;51.818;8.484;2022-07-23T03:35:32;14.67;;;11.77;;
4563;SDS011;2294;51.818;8.484;2022-07-23T03:37:59;12.97;;;11.27;;
4563;SDS011;2294;51.818;8.484;2022-07-23T03:40:28;19.97;;;12.00;;
4563;SDS011;2294;51.818;8.484;2022-07-23T03:42:54;20.90;;;11.33;;
4563;SDS011;2294;51.818;8.484;2022-07-23T03:45:21;14.50;;;11.57;;
4563;SDS011;2294;51.818;8.484;2022-07-23T03:47:48;14.30;;;10.77;;
4563;SDS011;2294;51.818;8.484;2022-07-23T03:50:15;12.83;;;10.83;;
4563;SDS011;2294;51.818;8.484;2022-07-23T03:52:42;18.17;;;10.57;;
4563;SDS011;2294;51.818;8.484;2022-07-23T03:55:09;15.33;;;11.23;;
4563;SDS011;2294;51.818;8.484;2022-07-23T03:57:38;12.77;;;10.60;;
4563;SDS011;2294;51.818;8.484;2022-07-23T04:00:05;16.33;;;11.67;;
4563;SDS011;2294;51.818;8.484;2022-07-23T04:02:34;18.80;;;10.90;;
4563;SDS011;2294;51.818;8.484;2022-07-23T04:05:01;16.03;;;10.43;;
4563;SDS011;2294;51.818;8.484;2022-07-23T04:07:29;20.20;;;12.57;;
4563;SDS011;2294;51.818;8.484;2022-07-23T04:09:56;21.17;;;11.57;;
4563;SDS011;2294;51.818;8.484;2022-07-23T04:12:23;17.10;;;11.53;;
4563;SDS011;2294;51.818;8.484;2022-07-23T04:14:52;19.70;;;11.30;;
4563;SDS011;2294;51.818;8.484;2022-07-23T04:17:19;19.20;;;11.17;;
4563;SDS011;2294;51.818;8.484;2022-07-23T04:19:46;14.20;;;10.10;;
4563;SDS011;2294;51.818;8.484;2022-07-23T04:22:13;15.60;;;11.13;;
4563;SDS011;2294;51.818;8.484;2022-07-23T04:24:39;19.23;;;11.57;;
4563;SDS011;2294;51.818;8.484;2022-07-23T04:27:06;28.77;;;13.10;;
4563;SDS011;2294;51.818;8.484;2022-07-23T04:29:33;11.80;;;9.73;;
4563;SDS011;2294;51.818;8.484;2022-07-23T04:32:01;13.63;;;10.63;;
4563;SDS011;2294;51.818;8.484;2022-07-23T04:34:29;12.87;;;9.77;;
4563;SDS011;2294;51.818;8.484;2022-07-23T04:36:56;22.87;;;11.90;;
4563;SDS011;2294;51.818;8.484;2022-07-23T04:39:23;14.53;;;10.10;;
4563;SDS011;2294;51.818;8.484;2022-07-23T04:41:50;17.60;;;10.97;;
4563;SDS011;2294;51.818;8.484;2022-07-23T04:44:17;15.10;;;10.83;;
4563;SDS011;2294;51.818;8.484;2022-07-23T04:46:43;19.63;;;10.90;;
4563;SDS011;2294;51.818;8.484;2022-07-23T04:49:12;14.87;;;11.67;;
4563;SDS011;2294;51.818;8.484;2022-07-23T04:51:39;19.90;;;12.80;;
4563;SDS011;2294;51.818;8.484;2022-07-23T04:54:06;14.67;;;10.57;;
4563;SDS011;2294;51.818;8.484;2022-07-23T04:56:33;12.43;;;9.97;;
4563;SDS011;2294;51.818;8.484;2022-07-23T04:59:00;14.80;;;11.70;;
4563;SDS011;2294;51.818;8.484;2022-07-23T05:01:27;14.03;;;11.30;;
4563;SDS011;2294;51.818;8.484;2022-07-23T05:03:54;16.03;;;12.10;;
4563;SDS011;2294;51.818;8.484;2022-07-23T05:06:22;27.90;;;13.03;;
4563;SDS011;2294;51.818;8.484;2022-07-23T05:08:49;18.73;;;13.53;;
4563;SDS011;2294;51.818;8.484;2022-07-23T05:11:16;15.33;;;12.37;;
4563;SDS011;2294;51.818;8.484;2022-07-23T05:13:43;18.83;;;13.30;;
4563;SDS011;2294;51.818;8.484;2022-07-23T05:16:09;14.57;;;12.00;;
4563;SDS011;2294;51.818;8.484;2022-07-23T05:18:36;25.13;;;12.73;;
4563;SDS011;2294;51.818;8.484;2022-07-23T05:21:03;17.00;;;13.80;;
4563;SDS011;2294;51.818;8.484;2022-07-23T05:23:32;32.23;;;13.20;;
4563;SDS011;2294;51.818;8.484;2022-07-23T05:25:59;15.63;;;12.03;;
4563;SDS011;2294;51.818;8.484;2022-07-23T05:28:26;20.83;;;13.83;;
4563;SDS011;2294;51.818;8.484;2022-07-23T05:30:53;21.37;;;12.50;;
4563;SDS011;2294;51.818;8.484;2022-07-23T05:33:19;18.63;;;12.57;;
4563;SDS011;2294;51.818;8.484;2022-07-23T05:35:46;19.40;;;12.43;;
4563;SDS011;2294;51.818;8.484;2022-07-23T05:38:13;21.20;;;12.63;;
4563;SDS011;2294;51.818;8.484;2022-07-23T05:40:41;19.63;;;13.43;;
4563;SDS011;2294;51.818;8.484;2022-07-23T05:43:08;19.20;;;12.10;;
4563;SDS011;2294;51.818;8.484;2022-07-23T05:45:35;21.13;;;12.60;;
4563;SDS011;2294;51.818;8.484;2022-07-23T05:48:02;23.90;;;13.37;;
4563;SDS011;2294;51.818;8.484;2022-07-23T05:50:30;19.33;;;12.40;;
4563;SDS011;2294;51.818;8.484;2022-07-23T05:52:57;24.40;;;13.50;;
4563;SDS011;2294;51.818;8.484;2022-07-23T05:55:24;16.60;;;12.27;;
4563;SDS011;2294;51.818;8.484;2022-07-23T05:57:55;21.40;;;12.90;;
4563;SDS011;2294;51.818;8.484;2022-07-23T06:00:22;24.70;;;13.37;;
4563;SDS011;2294;51.818;8.484;2022-07-23T06:02:49;19.40;;;12.67;;
4563;SDS011;2294;51.818;8.484;2022-07-23T06:05:17;23.20;;;13.53;;
4563;SDS011;2294;51.818;8.484;2022-07-23T06:07:44;16.17;;;13.10;;
4563;SDS011;2294;51.818;8.484;2022-07-23T06:10:11;22.17;;;12.37;;
4563;SDS011;2294;51.818;8.484;2022-07-23T06:12:38;25.93;;;12.70;;
4563;SDS011;2294;51.818;8.484;2022-07-23T06:15:08;21.07;;;12.10;;
4563;SDS011;2294;51.818;8.484;2022-07-23T06:17:35;19.80;;;12.63;;
4563;SDS011;2294;51.818;8.484;2022-07-23T06:20:04;17.40;;;12.90;;
4563;SDS011;2294;51.818;8.484;2022-07-23T06:22:32;24.93;;;17.70;;
4563;SDS011;2294;51.818;8.484;2022-07-23T06:24:59;35.13;;;18.90;;
4563;SDS011;2294;51.818;8.484;2022-07-23T06:27:26;31.77;;;20.80;;
4563;SDS011;2294;51.818;8.484;2022-07-23T06:29:53;25.63;;;16.67;;
4563;SDS011;2294;51.818;8.484;2022-07-23T06:32:21;28.77;;;16.07;;
4563;SDS011;2294;51.818;8.484;2022-07-23T06:34:48;20.10;;;13.33;;
4563;SDS011;2294;51.818;8.484;2022-07-23T06:37:15;24.43;;;14.43;;
4563;SDS011;2294;51.818;8.484;2022-07-23T06:39:42;21.97;;;13.20;;
4563;SDS011;2294;51.818;8.484;2022-07-23T06:42:09;20.63;;;12.97;;
4563;SDS011;2294;51.818;8.484;2022-07-23T06:44:37;17.77;;;11.93;;
4563;SDS011;2294;51.818;8.484;2022-07-23T06:47:04;19.47;;;12.00;;
4563;SDS011;2294;51.818;8.484;2022-07-23T06:49:32;17.07;;;10.97;;
4563;SDS011;2294;51.818;8.484;2022-07-23T06:51:59;19.67;;;11.20;;
4563;SDS011;2294;51.818;8.484;2022-07-23T06:54:26;20.37;;;11.43;;
4563;SDS011;2294;51.818;8.484;2022-07-23T06:56:53;17.57;;;10.97;;
4563;SDS011;2294;51.818;8.484;2022-07-23T06:59:20;19.20;;;12.10;;
4563;SDS011;2294;51.818;8.484;2022-07-23T07:01:47;18.90;;;9.60;;
4563;SDS011;2294;51.818;8.484;2022-07-23T07:04:14;27.57;;;10.17;;
4563;SDS011;2294;51.818;8.484;2022-07-23T07:06:42;17.13;;;10.30;;
4563;SDS011;2294;51.818;8.484;2022-07-23T07:09:09;22.00;;;9.67;;
4563;SDS011;2294;51.818;8.484;2022-07-23T07:11:36;9.57;;;7.60;;
4563;SDS011;2294;51.818;8.484;2022-07-23T07:14:03;10.47;;;8.07;;
4563;SDS011;2294;51.818;8.484;2022-07-23T07:16:31;16.80;;;8.80;;
4563;SDS011;2294;51.818;8.484;2022-07-23T07:18:58;13.93;;;8.23;;
4563;SDS011;2294;51.818;8.484;2022-07-23T07:21:25;12.00;;;7.77;;
4563;SDS011;2294;51.818;8.484;2022-07-23T07:23:53;11.13;;;7.40;;
4563;SDS011;2294;51.818;8.484;2022-07-23T07:26:20;13.83;;;7.93;;
4563;SDS011;2294;51.818;8.484;2022-07-23T07:28:47;11.53;;;8.40;;
4563;SDS011;2294;51.818;8.484;2022-07-23T07:31:14;18.13;;;8.00;;
4563;SDS011;2294;51.818;8.484;2022-07-23T07:33:41;11.00;;;7.33;;
4563;SDS011;2294;51.818;8.484;2022-07-23T07:36:08;16.40;;;8.03;;
4563;SDS011;2294;51.818;8.484;2022-07-23T07:38:35;13.63;;;7.53;;
4563;SDS011;2294;51.818;8.484;2022-07-23T07:41:04;12.90;;;8.10;;
4563;SDS011;2294;51.818;8.484;2022-07-23T07:43:31;10.23;;;7.53;;
4563;SDS011;2294;51.818;8.484;2022-07-23T07:45:57;13.50;;;7.60;;
4563;SDS011;2294;51.818;8.484;2022-07-23T07:48:25;24.40;;;8.93;;
4563;SDS011;2294;51.818;8.484;2022-07-23T07:50:52;14.20;;;8.27;;
4563;SDS011;2294;51.818;8.484;2022-07-23T07:53:18;13.43;;;8.50;;
4563;SDS011;2294;51.818;8.484;2022-07-23T07:55:45;10.33;;;7.67;;
4563;SDS011;2294;51.818;8.484;2022-07-23T07:58:14;20.40;;;8.03;;
4563;SDS011;2294;51.818;8.484;2022-07-23T08:00:41;10.97;;;7.70;;
4563;SDS011;2294;51.818;8.484;2022-07-23T08:03:08;10.80;;;7.40;;
4563;SDS011;2294;51.818;8.484;2022-07-23T08:05:35;9.20;;;7.30;;
4563;SDS011;2294;51.818;8.484;2022-07-23T08:08:02;9.70;;;6.50;;
4563;SDS011;2294;51.818;8.484;2022-07-23T08:10:29;11.83;;;7.07;;
4563;SDS011;2294;51.818;8.484;2022-07-23T08:12:56;17.40;;;7.10;;
4563;SDS011;2294;51.818;8.484;2022-07-23T08:15:28;6.90;;;6.17;;
4563;SDS011;2294;51.818;8.484;2022-07-23T08:17:56;11.03;;;6.33;;
4563;SDS011;2294;51.818;8.484;2022-07-23T08:20:24;21.60;;;6.00;;
4563;SDS011;2294;51.818;8.484;2022-07-23T08:22:52;11.43;;;5.43;;
4563;SDS011;2294;51.818;8.484;2022-07-23T08:25:21;10.27;;;6.00;;
4563;SDS011;2294;51.818;8.484;2022-07-23T08:27:49;13.97;;;6.33;;
4563;SDS011;2294;51.818;8.484;2022-07-23T08:30:16;9.13;;;5.70;;
4563;SDS011;2294;51.818;8.484;2022-07-23T08:32:52;8.90;;;6.20;;
4563;SDS011;2294;51.818;8.484;2022-07-23T08:35:25;8.60;;;5.67;;
4563;SDS011;2294;51.818;8.484;2022-07-23T08:37:53;9.33;;;5.03;;
4563;SDS011;2294;51.818;8.484;2022-07-23T08:40:21;10.20;;;5.23;;
4563;SDS011;2294;51.818;8.484;2022-07-23T08:42:49;7.37;;;5.47;;
4563;SDS011;2294;51.818;8.484;2022-07-23T08:45:17;9.10;;;5.60;;
4563;SDS011;2294;51.818;8.484;2022-07-23T08:47:46;8.50;;;5.00;;
4563;SDS011;2294;51.818;8.484;2022-07-23T08:50:17;11.37;;;6.30;;
4563;SDS011;2294;51.818;8.484;2022-07-23T08:52:45;7.00;;;5.27;;
4563;SDS011;2294;51.818;8.484;2022-07-23T08:55:12;10.10;;;5.67;;
4563;SDS011;2294;51.818;8.484;2022-07-23T08:57:42;7.27;;;4.87;;
4563;SDS011;2294;51.818;8.484;2022-07-23T09:00:09;8.00;;;5.23;;
4563;SDS011;2294;51.818;8.484;2022-07-23T09:02:40;8.00;;;5.53;;
4563;SDS011;2294;51.818;8.484;2022-07-23T09:05:09;14.47;;;5.63;;
4563;SDS011;2294;51.818;8.484;2022-07-23T09:08:02;8.90;;;5.60;;
4563;SDS011;2294;51.818;8.484;2022-07-23T09:10:42;8.60;;;5.87;;
4563;SDS011;2294;51.818;8.484;2022-07-23T09:13:22;11.50;;;5.93;;
4563;SDS011;2294;51.818;8.484;2022-07-23T09:15:51;11.63;;;5.23;;
4563;SDS011;2294;51.818;8.484;2022-07-23T09:18:19;8.03;;;6.03;;
4563;SDS011;2294;51.818;8.484;2022-07-23T09:20:56;10.13;;;5.83;;
4563;SDS011;2294;51.818;8.484;2022-07-23T09:23:37;6.80;;;5.70;;
4563;SDS011;2294;51.818;8.484;2022-07-23T09:26:16;14.30;;;6.30;;
4563;SDS011;2294;51.818;8.484;2022-07-23T09:28:52;7.87;;;6.33;;
4563;SDS011;2294;51.818;8.484;2022-07-23T09:31:21;9.80;;;6.43;;
4563;SDS011;2294;51.818;8.484;2022-07-23T09:33:48;8.00;;;6.33;;
4563;SDS011;2294;51.818;8.484;2022-07-23T09:36:26;7.40;;;5.43;;
4563;SDS011;2294;51.818;8.484;2022-07-23T09:38:56;8.43;;;5.53;;
4563;SDS011;2294;51.818;8.484;2022-07-23T09:41:22;8.00;;;5.40;;
4563;SDS011;2294;51.818;8.484;2022-07-23T09:43:54;12.40;;;5.50;;
4563;SDS011;2294;51.818;8.484;2022-07-23T09:46:23;7.70;;;5.37;;
4563;SDS011;2294;51.818;8.484;2022-07-23T09:48:51;5.60;;;4.57;;
4563;SDS011;2294;51.818;8.484;2022-07-23T09:51:18;7.53;;;5.07;;
4563;SDS011;2294;51.818;8.484;2022-07-23T09:53:50;9.23;;;5.20;;
4563;SDS011;2294;51.818;8.484;2022-07-23T10:47:46;4.50;;;3.60;;
4563;SDS011;2294;51.818;8.484;2022-07-23T10:50:22;7.83;;;3.03;;
4563;SDS011;2294;51.818;8.484;2022-07-23T10:53:07;10.80;;;3.67;;
4563;SDS011;2294;51.818;8.484;2022-07-23T10:55:48;9.40;;;3.50;;
4563;SDS011;2294;51.818;8.484;2022-07-23T10:58:20;5.50;;;3.40;;
4563;SDS011;2294;51.818;8.484;2022-07-23T11:00:49;6.60;;;3.00;;
4563;SDS011;2294;51.818;8.484;2022-07-23T11:03:28;3.80;;;2.93;;
4563;SDS011;2294;51.818;8.484;2022-07-23T11:06:01;6.23;;;2.37;;
4563;SDS011;2294;51.818;8.484;2022-07-23T11:08:29;4.07;;;3.30;;
4563;SDS011;2294;51.818;8.484;2022-07-23T11:11:07;4.10;;;3.30;;
4563;SDS011;2294;51.818;8.484;2022-07-23T11:13:37;10.73;;;3.47;;
4563;SDS011;2294;51.818;8.484;2022-07-23T11:16:13;6.23;;;3.67;;
4563;SDS011;2294;51.818;8.484;2022-07-23T11:19:04;9.00;;;3.00;;
4563;SDS011;2294;51.818;8.484;2022-07-23T11:21:42;6.90;;;3.50;;
4563;SDS011;2294;51.818;8.484;2022-07-23T11:24:11;4.43;;;3.40;;
4563;SDS011;2294;51.818;8.484;2022-07-23T11:26:46;4.60;;;3.53;;
4563;SDS011;2294;51.818;8.484;2022-07-23T11:32:11;9.47;;;3.60;;
4563;SDS011;2294;51.818;8.484;2022-07-23T11:34:51;4.50;;;2.90;;
4563;SDS011;2294;51.818;8.484;2022-07-23T11:37:29;4.83;;;3.00;;
4563;SDS011;2294;51.818;8.484;2022-07-23T11:40:08;5.40;;;2.77;;
4563;SDS011;2294;51.818;8.484;2022-07-23T11:42:37;8.70;;;2.83;;
4563;SDS011;2294;51.818;8.484;2022-07-23T11:45:05;3.40;;;2.47;;
4563;SDS011;2294;51.818;8.484;2022-07-23T11:47:34;4.30;;;2.97;;
4563;SDS011;2294;51.818;8.484;2022-07-23T11:50:03;3.47;;;3.17;;
4563;SDS011;2294;51.818;8.484;2022-07-23T11:52:32;6.63;;;2.70;;
4563;SDS011;2294;51.818;8.484;2022-07-23T11:55:01;5.10;;;2.80;;
4563;SDS011;2294;51.818;8.484;2022-07-23T11:57:30;5.00;;;3.40;;
4563;SDS011;2294;51.818;8.484;2022-07-23T12:00:04;4.23;;;2.70;;
4563;SDS011;2294;51.818;8.484;2022-07-23T12:02:33;4.03;;;3.10;;
4563;SDS011;2294;51.818;8.484;2022-07-23T12:05:00;5.63;;;2.93;;
4563;SDS011;2294;51.818;8.484;2022-07-23T12:07:30;5.57;;;3.20;;
4563;SDS011;2294;51.818;8.484;2022-07-23T12:09:59;6.03;;;2.87;;
4563;SDS011;2294;51.818;8.484;2022-07-23T12:12:34;5.30;;;3.03;;
4563;SDS011;2294;51.818;8.484;2022-07-23T12:15:02;7.23;;;2.93;;
4563;SDS011;2294;51.818;8.484;2022-07-23T12:17:31;4.63;;;2.70;;
4563;SDS011;2294;51.818;8.484;2022-07-23T12:20:00;3.07;;;2.80;;
4563;SDS011;2294;51.818;8.484;2022-07-23T12:22:34;4.37;;;2.90;;
4563;SDS011;2294;51.818;8.484;2022-07-23T12:25:03;7.13;;;2.83;;
4563;SDS011;2294;51.818;8.484;2022-07-23T12:27:33;2.50;;;2.30;;
4563;SDS011;2294;51.818;8.484;2022-07-23T12:30:14;3.17;;;2.67;;
4563;SDS011;2294;51.818;8.484;2022-07-23T12:32:45;8.53;;;2.70;;
4563;SDS011;2294;51.818;8.484;2022-07-23T12:35:14;7.63;;;2.67;;
4563;SDS011;2294;51.818;8.484;2022-07-23T12:37:43;5.50;;;2.97;;
4563;SDS011;2294;51.818;8.484;2022-07-23T12:40:18;4.13;;;1.83;;
4563;SDS011;2294;51.818;8.484;2022-07-23T12:42:47;2.40;;;2.20;;
4563;SDS011;2294;51.818;8.484;2022-07-23T12:45:15;4.60;;;2.33;;
4563;SDS011;2294;51.818;8.484;2022-07-23T12:47:56;4.20;;;2.27;;
4563;SDS011;2294;51.818;8.484;2022-07-23T12:50:31;2.87;;;1.77;;
4563;SDS011;2294;51.818;8.484;2022-07-23T12:53:07;5.67;;;2.30;;
4563;SDS011;2294;51.818;8.484;2022-07-23T12:55:36;2.90;;;1.73;;
4563;SDS011;2294;51.818;8.484;2022-07-23T12:58:08;5.20;;;2.90;;
4563;SDS011;2294;51.818;8.484;2022-07-23T13:00:53;5.83;;;2.40;;
4563;SDS011;2294;51.818;8.484;2022-07-23T13:03:23;10.90;;;2.57;;
4563;SDS011;2294;51.818;8.484;2022-07-23T13:05:51;2.80;;;2.20;;
4563;SDS011;2294;51.818;8.484;2022-07-23T13:08:20;7.23;;;2.30;;
4563;SDS011;2294;51.818;8.484;2022-07-23T13:10:48;4.57;;;2.80;;
4563;SDS011;2294;51.818;8.484;2022-07-23T13:13:16;4.10;;;2.13;;
4563;SDS011;2294;51.818;8.484;2022-07-23T13:15:43;3.00;;;2.20;;
4563;SDS011;2294;51.818;8.484;2022-07-23T13:18:10;2.70;;;1.60;;
4563;SDS011;2294;51.818;8.484;2022-07-23T13:20:37;3.93;;;2.60;;
4563;SDS011;2294;51.818;8.484;2022-07-23T13:23:05;3.60;;;1.60;;
4563;SDS011;2294;51.818;8.484;2022-07-23T13:25:33;3.20;;;1.90;;
4563;SDS011;2294;51.818;8.484;2022-07-23T13:28:00;3.37;;;2.10;;
4563;SDS011;2294;51.818;8.484;2022-07-23T13:30:28;3.60;;;1.90;;
4563;SDS011;2294;51.818;8.484;2022-07-23T13:32:55;3.43;;;1.60;;
4563;SDS011;2294;51.818;8.484;2022-07-23T13:35:22;4.10;;;1.50;;
4563;SDS011;2294;51.818;8.484;2022-07-23T13:37:49;2.03;;;1.73;;
4563;SDS011;2294;51.818;8.484;2022-07-23T13:40:16;3.40;;;2.07;;
4563;SDS011;2294;51.818;8.484;2022-07-23T13:42:44;2.50;;;1.50;;
4563;SDS011;2294;51.818;8.484;2022-07-23T13:45:11;1.70;;;1.60;;
4563;SDS011;2294;51.818;8.484;2022-07-23T13:47:38;1.63;;;1.53;;
4563;SDS011;2294;51.818;8.484;2022-07-23T13:50:06;1.63;;;1.53;;
4563;SDS011;2294;51.818;8.484;2022-07-23T13:52:33;13.00;;;1.83;;
4563;SDS011;2294;51.818;8.484;2022-07-23T13:55:00;3.00;;;1.50;;
4563;SDS011;2294;51.818;8.484;2022-07-23T13:57:29;2.77;;;2.10;;
4563;SDS011;2294;51.818;8.484;2022-07-23T13:59:57;4.30;;;1.57;;
4563;SDS011;2294;51.818;8.484;2022-07-23T14:02:24;4.90;;;1.80;;
4563;SDS011;2294;51.818;8.484;2022-07-23T14:04:51;4.70;;;1.80;;
4563;SDS011;2294;51.818;8.484;2022-07-23T14:07:19;3.80;;;1.60;;
4563;SDS011;2294;51.818;8.484;2022-07-23T14:09:46;2.40;;;1.80;;
4563;SDS011;2294;51.818;8.484;2022-07-23T14:12:13;4.50;;;1.70;;
4563;SDS011;2294;51.818;8.484;2022-07-23T14:14:40;4.10;;;1.77;;
4563;SDS011;2294;51.818;8.484;2022-07-23T14:17:09;2.30;;;1.60;;
4563;SDS011;2294;51.818;8.484;2022-07-23T14:19:36;1.43;;;1.30;;
4563;SDS011;2294;51.818;8.484;2022-07-23T14:22:03;3.93;;;1.43;;
4563;SDS011;2294;51.818;8.484;2022-07-23T14:24:30;4.10;;;1.33;;
4563;SDS011;2294;51.818;8.484;2022-07-23T14:26:58;5.60;;;1.67;;
4563;SDS011;2294;51.818;8.484;2022-07-23T14:29:26;4.00;;;1.40;;
4563;SDS011;2294;51.818;8.484;2022-07-23T14:31:53;3.00;;;1.50;;
4563;SDS011;2294;51.818;8.484;2022-07-23T14:34:22;4.60;;;2.30;;
4563;SDS011;2294;51.818;8.484;2022-07-23T14:36:50;3.33;;;1.37;;
4563;SDS011;2294;51.818;8.484;2022-07-23T14:39:17;3.83;;;1.77;;
4563;SDS011;2294;51.818;8.484;2022-07-23T14:41:44;2.40;;;1.27;;
4563;SDS011;2294;51.818;8.484;2022-07-23T14:44:11;2.07;;;1.50;;
4563;SDS011;2294;51.818;8.484;2022-07-23T14:46:38;1.60;;;1.43;;
4563;SDS011;2294;51.818;8.484;2022-07-23T14:49:04;1.70;;;1.23;;
4563;SDS011;2294;51.818;8.484;2022-07-23T14:51:33;3.07;;;1.63;;
4563;SDS011;2294;51.818;8.484;2022-07-23T14:54:00;2.30;;;1.40;;
4563;SDS011;2294;51.818;8.484;2022-07-23T14:56:27;1.53;;;1.03;;
4563;SDS011;2294;51.818;8.484;2022-07-23T14:58:54;3.23;;;1.53;;
4563;SDS011;2294;51.818;8.484;2022-07-23T15:01:21;3.63;;;1.40;;
4563;SDS011;2294;51.818;8.484;2022-07-23T15:03:49;7.13;;;1.70;;
4563;SDS011;2294;51.818;8.484;2022-07-23T15:06:16;2.37;;;1.33;;
4563;SDS011;2294;51.818;8.484;2022-07-23T15:08:44;1.50;;;1.30;;
4563;SDS011;2294;51.818;8.484;2022-07-23T15:11:11;2.67;;;1.43;;
4563;SDS011;2294;51.818;8.484;2022-07-23T15:13:38;3.53;;;1.10;;
4563;SDS011;2294;51.818;8.484;2022-07-23T15:16:06;2.40;;;1.40;;
4563;SDS011;2294;51.818;8.484;2022-07-23T15:18:33;1.60;;;1.47;;
4563;SDS011;2294;51.818;8.484;2022-07-23T15:21:01;2.33;;;1.30;;
4563;SDS011;2294;51.818;8.484;2022-07-23T15:23:28;2.90;;;1.40;;
4563;SDS011;2294;51.818;8.484;2022-07-23T15:25:56;3.00;;;1.33;;
4563;SDS011;2294;51.818;8.484;2022-07-23T15:28:24;3.60;;;1.40;;
4563;SDS011;2294;51.818;8.484;2022-07-23T15:30:51;3.10;;;1.40;;
4563;SDS011;2294;51.818;8.484;2022-07-23T15:33:18;3.67;;;1.57;;
4563;SDS011;2294;51.818;8.484;2022-07-23T15:35:45;5.20;;;1.43;;
4563;SDS011;2294;51.818;8.484;2022-07-23T15:38:12;2.53;;;1.13;;
4563;SDS011;2294;51.818;8.484;2022-07-23T15:40:39;1.30;;;1.20;;
4563;SDS011;2294;51.818;8.484;2022-07-23T15:43:08;4.47;;;1.40;;
4563;SDS011;2294;51.818;8.484;2022-07-23T15:45:34;2.40;;;1.30;;
4563;SDS011;2294;51.818;8.484;2022-07-23T15:48:01;3.30;;;1.40;;
4563;SDS011;2294;51.818;8.484;2022-07-23T15:50:29;4.30;;;1.37;;
4563;SDS011;2294;51.818;8.484;2022-07-23T15:52:56;1.93;;;1.40;;
4563;SDS011;2294;51.818;8.484;2022-07-23T15:55:23;2.00;;;1.43;;
4563;SDS011;2294;51.818;8.484;2022-07-23T15:57:50;2.33;;;1.67;;
4563;SDS011;2294;51.818;8.484;2022-07-23T16:00:19;3.80;;;1.60;;
4563;SDS011;2294;51.818;8.484;2022-07-23T16:02:46;2.20;;;1.43;;
4563;SDS011;2294;51.818;8.484;2022-07-23T16:05:13;3.03;;;1.33;;